Time;durP1;ratioP1;P1;durP2;ratioP2;P2;SDS_P1;SDS_P2;PMS_P1;PMS_P2;Temp;Humidity;BMP_temperature;BMP_pressure;BME280_temperature;BME280_humidity;BME280_pressure;Samples;Min_cycle;Max_cycle;Signal;HPM_P1;HPM_P2
2023/04/11 00:01:31;;;;;;;9.45;3.17;;;;;;;;;;5010802;28;20497;-61
2023/04/11 00:03:57;;;;;;;13.68;3.72;;;;;;;;;;5010678;28;20026;-62
2023/04/11 00:06:24;;;;;;;11.90;3.33;;;;;;;;;;4993420;28;20037;-61
2023/04/11 00:08:51;;;;;;;14.13;3.42;;;;;;;;;;5011118;28;20502;-61
2023/04/11 00:11:17;;;;;;;11.43;3.00;;;;;;;;;;5011217;28;20022;-62
2023/04/11 00:13:44;;;;;;;12.35;3.33;;;;;;;;;;5010598;28;20049;-62
2023/04/11 00:16:10;;;;;;;11.88;3.15;;;;;;;;;;5010486;28;20033;-62
2023/04/11 00:18:38;;;;;;;8.02;2.50;;;;;;;;;;5010257;28;20029;-61
2023/04/11 00:21:04;;;;;;;13.55;3.40;;;;;;;;;;5010889;28;20053;-62
2023/04/11 00:23:30;;;;;;;12.10;4.15;;;;;;;;;;5010710;28;20474;-61
2023/04/11 00:25:56;;;;;;;13.13;3.17;;;;;;;;;;5011021;28;20030;-61
2023/04/11 00:28:22;;;;;;;11.00;3.63;;;;;;;;;;5010861;28;20034;-62
2023/04/11 00:30:48;;;;;;;12.23;3.38;;;;;;;;;;5010478;28;20029;-61
2023/04/11 00:33:15;;;;;;;9.82;2.78;;;;;;;;;;5010802;28;20200;-62
2023/04/11 00:35:41;;;;;;;10.98;3.13;;;;;;;;;;5010619;28;20029;-62
2023/04/11 00:38:07;;;;;;;10.30;2.72;;;;;;;;;;5010203;28;20088;-61
2023/04/11 00:40:33;;;;;;;8.88;2.65;;;;;;;;;;4992906;28;20109;-61
2023/04/11 00:42:59;;;;;;;12.00;2.80;;;;;;;;;;4991250;28;20057;-62
2023/04/11 00:45:25;;;;;;;9.30;3.08;;;;;;;;;;5007655;28;20113;-61
2023/04/11 00:47:51;;;;;;;12.15;3.05;;;;;;;;;;5010848;28;20022;-61
2023/04/11 00:50:18;;;;;;;8.73;2.47;;;;;;;;;;5010529;28;20053;-62
2023/04/11 00:52:46;;;;;;;11.30;2.78;;;;;;;;;;4991040;28;20035;-61
2023/04/11 00:55:12;;;;;;;10.18;2.72;;;;;;;;;;5008448;28;20084;-61
2023/04/11 00:57:38;;;;;;;9.95;2.17;;;;;;;;;;5010275;28;20433;-63
2023/04/11 01:00:04;;;;;;;10.60;2.70;;;;;;;;;;5010559;28;20033;-61
2023/04/11 01:02:30;;;;;;;12.40;3.05;;;;;;;;;;5010322;28;20505;-61
2023/04/11 01:04:58;;;;;;;12.32;2.97;;;;;;;;;;5013682;28;20045;-61
2023/04/11 01:07:24;;;;;;;10.20;3.00;;;;;;;;;;5013728;28;20490;-61
2023/04/11 01:09:51;;;;;;;9.20;2.67;;;;;;;;;;5009921;28;20036;-61
2023/04/11 01:12:17;;;;;;;12.07;2.53;;;;;;;;;;4994211;28;20097;-61
2023/04/11 01:14:46;;;;;;;10.80;2.45;;;;;;;;;;4994232;28;20490;-61
2023/04/11 01:17:13;;;;;;;10.18;2.80;;;;;;;;;;4994326;28;20030;-61
2023/04/11 01:19:39;;;;;;;14.27;3.53;;;;;;;;;;5011218;28;20034;-61
2023/04/11 01:22:05;;;;;;;14.38;2.55;;;;;;;;;;5013601;28;20060;-62
2023/04/11 01:24:31;;;;;;;13.25;2.83;;;;;;;;;;5013454;28;20509;-61
2023/04/11 01:26:57;;;;;;;9.95;2.67;;;;;;;;;;4996385;28;20026;-61
2023/04/11 01:29:24;;;;;;;10.70;3.42;;;;;;;;;;5013862;28;20389;-62
2023/04/11 01:31:51;;;;;;;10.20;2.90;;;;;;;;;;5013630;28;20034;-62
2023/04/11 01:34:17;;;;;;;10.50;2.92;;;;;;;;;;5013353;28;20092;-62
2023/04/11 01:36:43;;;;;;;9.48;2.42;;;;;;;;;;5013027;28;20029;-61
2023/04/11 01:39:09;;;;;;;10.77;2.92;;;;;;;;;;5013075;28;20058;-61
2023/04/11 01:41:36;;;;;;;9.63;2.75;;;;;;;;;;5012979;28;20029;-61
2023/04/11 01:44:02;;;;;;;11.38;3.28;;;;;;;;;;5013623;28;20088;-61
2023/04/11 01:46:28;;;;;;;10.20;3.05;;;;;;;;;;5012864;28;20034;-61
2023/04/11 01:48:55;;;;;;;9.57;2.70;;;;;;;;;;5012917;28;20034;-61
2023/04/11 01:51:21;;;;;;;9.40;2.35;;;;;;;;;;5013530;28;20075;-61
2023/04/11 01:53:47;;;;;;;9.98;2.83;;;;;;;;;;5012403;28;20034;-61
2023/04/11 01:56:14;;;;;;;9.95;3.13;;;;;;;;;;5012712;28;20552;-61
2023/04/11 01:58:40;;;;;;;7.78;2.50;;;;;;;;;;5012863;28;20070;-61
2023/04/11 02:01:06;;;;;;;12.75;2.95;;;;;;;;;;5013066;28;20034;-61
2023/04/11 02:03:33;;;;;;;6.32;2.30;;;;;;;;;;5012609;28;20064;-61
2023/04/11 02:05:59;;;;;;;9.50;2.47;;;;;;;;;;5012877;28;20056;-61
2023/04/11 02:08:25;;;;;;;7.38;2.30;;;;;;;;;;5011945;28;20510;-61
2023/04/11 02:10:50;;;;;;;9.27;2.78;;;;;;;;;;5008036;28;20084;-61
2023/04/11 02:13:16;;;;;;;11.07;2.28;;;;;;;;;;4993434;28;20034;-61
2023/04/11 02:15:42;;;;;;;9.82;2.80;;;;;;;;;;5003532;28;20428;-61
2023/04/11 02:18:08;;;;;;;14.40;2.92;;;;;;;;;;5012949;28;20109;-61
2023/04/11 02:20:39;;;;;;;8.48;2.70;;;;;;;;;;5012192;28;20030;-61
2023/04/11 02:23:05;;;;;;;12.90;3.03;;;;;;;;;;5012765;28;20026;-61
2023/04/11 02:25:31;;;;;;;10.80;2.40;;;;;;;;;;5011704;28;20032;-62
2023/04/11 02:27:57;;;;;;;8.30;2.38;;;;;;;;;;5012787;28;20026;-61
2023/04/11 02:30:23;;;;;;;12.68;2.53;;;;;;;;;;5012274;28;20089;-60
2023/04/11 02:32:49;;;;;;;9.98;2.72;;;;;;;;;;5012577;28;20029;-60
2023/04/11 02:35:15;;;;;;;9.25;2.75;;;;;;;;;;5012411;28;20018;-61
2023/04/11 02:37:42;;;;;;;11.73;2.42;;;;;;;;;;5012045;28;20379;-61
2023/04/11 02:40:08;;;;;;;11.43;3.00;;;;;;;;;;5012250;28;20038;-62
2023/04/11 02:42:34;;;;;;;8.70;2.70;;;;;;;;;;5011969;28;20560;-61
2023/04/11 02:45:01;;;;;;;11.25;3.22;;;;;;;;;;5012219;28;20489;-61
2023/04/11 02:47:27;;;;;;;10.73;3.13;;;;;;;;;;5011564;28;20029;-61
2023/04/11 02:49:53;;;;;;;10.07;2.70;;;;;;;;;;5012385;28;20034;-61
2023/04/11 02:52:19;;;;;;;10.40;2.70;;;;;;;;;;5012423;28;20034;-61
2023/04/11 02:54:45;;;;;;;9.50;2.65;;;;;;;;;;5011256;28;20060;-61
2023/04/11 02:57:11;;;;;;;9.20;2.28;;;;;;;;;;5011997;28;20482;-62
2023/04/11 02:59:37;;;;;;;11.90;2.67;;;;;;;;;;5011632;28;20080;-62
2023/04/11 03:02:03;;;;;;;12.07;3.00;;;;;;;;;;5011987;28;20174;-61
2023/04/11 03:04:29;;;;;;;10.82;2.67;;;;;;;;;;5011589;28;20026;-61
2023/04/11 03:06:55;;;;;;;6.82;2.30;;;;;;;;;;5011657;28;20054;-61
2023/04/11 03:09:24;;;;;;;7.60;1.98;;;;;;;;;;5011966;28;20064;-61
2023/04/11 03:11:50;;;;;;;8.30;2.25;;;;;;;;;;5012194;28;20091;-61
2023/04/11 03:14:16;;;;;;;9.45;2.40;;;;;;;;;;4993927;28;20109;-61
2023/04/11 03:16:42;;;;;;;10.63;2.95;;;;;;;;;;5011560;28;20029;-61
2023/04/11 03:19:08;;;;;;;11.07;3.10;;;;;;;;;;5011497;28;20504;-61
2023/04/11 03:21:34;;;;;;;14.13;3.25;;;;;;;;;;5011568;28;20033;-61
2023/04/11 03:24:01;;;;;;;10.60;2.83;;;;;;;;;;5011726;28;20087;-61
2023/04/11 03:26:27;;;;;;;10.48;3.08;;;;;;;;;;5010514;28;20041;-61
2023/04/11 03:28:53;;;;;;;10.02;2.53;;;;;;;;;;5011454;28;20022;-61
2023/04/11 03:31:20;;;;;;;8.18;2.30;;;;;;;;;;5011592;28;20040;-62
2023/04/11 03:33:46;;;;;;;7.75;2.80;;;;;;;;;;5011115;28;20028;-61
2023/04/11 03:36:12;;;;;;;10.57;2.97;;;;;;;;;;5011533;28;20037;-61
2023/04/11 03:38:38;;;;;;;8.40;2.63;;;;;;;;;;5011077;28;20065;-61
2023/04/11 03:41:04;;;;;;;10.80;2.70;;;;;;;;;;5011142;28;20069;-61
2023/04/11 03:43:30;;;;;;;9.27;2.58;;;;;;;;;;5010688;28;20526;-61
2023/04/11 03:45:56;;;;;;;7.38;1.90;;;;;;;;;;5010803;28;20101;-62
2023/04/11 03:48:28;;;;;;;8.85;2.22;;;;;;;;;;5011799;28;20398;-62
2023/04/11 03:50:54;;;;;;;8.70;2.60;;;;;;;;;;4991577;28;20053;-61
2023/04/11 03:53:20;;;;;;;10.38;2.60;;;;;;;;;;5011164;28;20061;-61
2023/04/11 03:55:52;;;;;;;9.57;2.58;;;;;;;;;;5010697;28;20046;-61
2023/04/11 03:58:18;;;;;;;9.13;2.65;;;;;;;;;;5010670;28;20108;-61
2023/04/11 04:00:45;;;;;;;11.02;3.20;;;;;;;;;;5010183;28;20117;-61
2023/04/11 04:03:12;;;;;;;10.23;2.10;;;;;;;;;;5010696;28;20022;-61
2023/04/11 04:05:38;;;;;;;7.43;2.05;;;;;;;;;;5010492;28;20037;-62
2023/04/11 04:08:04;;;;;;;8.10;2.20;;;;;;;;;;4992881;28;20482;-62
2023/04/11 04:10:30;;;;;;;9.77;2.72;;;;;;;;;;5010844;28;20129;-61
2023/04/11 04:12:56;;;;;;;6.82;2.10;;;;;;;;;;5010057;28;20529;-61
2023/04/11 04:15:22;;;;;;;7.75;2.30;;;;;;;;;;5010993;28;20030;-61
2023/04/11 04:17:48;;;;;;;9.07;2.40;;;;;;;;;;5010411;28;20105;-61
2023/04/11 04:20:14;;;;;;;10.65;3.53;;;;;;;;;;5010491;28;20490;-61
2023/04/11 04:22:40;;;;;;;8.23;2.20;;;;;;;;;;5010076;28;20034;-61
2023/04/11 04:25:08;;;;;;;6.93;2.10;;;;;;;;;;5010836;28;20069;-61
2023/04/11 04:27:34;;;;;;;10.38;2.75;;;;;;;;;;5010699;28;20547;-61
2023/04/11 04:30:00;;;;;;;9.20;2.58;;;;;;;;;;5010476;28;20075;-61
2023/04/11 04:32:27;;;;;;;6.53;2.40;;;;;;;;;;5010605;28;20103;-61
2023/04/11 04:34:57;;;;;;;10.55;2.50;;;;;;;;;;5010406;28;20160;-61
2023/04/11 04:37:24;;;;;;;6.88;2.40;;;;;;;;;;5010946;28;20018;-61
2023/04/11 04:40:08;;;;;;;9.05;2.17;;;;;;;;;;5013755;28;20125;-62
2023/04/11 04:42:35;;;;;;;8.10;2.42;;;;;;;;;;5014042;28;20029;-61
2023/04/11 04:45:01;;;;;;;8.95;1.77;;;;;;;;;;4996393;28;20030;-62
2023/04/11 04:47:32;;;;;;;6.40;2.30;;;;;;;;;;4995014;28;20029;-61
2023/04/11 04:49:58;;;;;;;6.78;2.00;;;;;;;;;;5009834;28;20049;-61
2023/04/11 04:52:25;;;;;;;10.88;2.13;;;;;;;;;;5014474;28;20041;-61
2023/04/11 04:54:51;;;;;;;7.65;2.30;;;;;;;;;;4995751;28;20029;-61
2023/04/11 04:57:17;;;;;;;7.90;2.20;;;;;;;;;;5014154;28;20048;-61
2023/04/11 04:59:44;;;;;;;6.10;2.10;;;;;;;;;;5013742;28;20482;-61
2023/04/11 05:02:10;;;;;;;6.40;2.30;;;;;;;;;;5014042;28;20030;-62
2023/04/11 05:04:36;;;;;;;7.22;2.15;;;;;;;;;;5013579;28;20029;-61
2023/04/11 05:07:02;;;;;;;9.18;2.22;;;;;;;;;;5013841;28;20032;-61
2023/04/11 05:09:28;;;;;;;5.88;1.95;;;;;;;;;;5014046;28;20030;-61
2023/04/11 05:11:55;;;;;;;8.05;2.00;;;;;;;;;;5013866;28;20478;-61
2023/04/11 05:14:21;;;;;;;6.72;2.08;;;;;;;;;;5014076;28;20038;-61
2023/04/11 05:16:47;;;;;;;6.80;1.75;;;;;;;;;;5010689;28;20026;-61
2023/04/11 05:19:13;;;;;;;7.07;1.77;;;;;;;;;;4994667;28;20037;-61
2023/04/11 05:21:39;;;;;;;6.07;2.17;;;;;;;;;;5013601;28;20029;-61
2023/04/11 05:24:05;;;;;;;5.93;1.85;;;;;;;;;;5013622;28;20091;-62
2023/04/11 05:26:32;;;;;;;7.80;2.10;;;;;;;;;;5012409;28;20029;-61
2023/04/11 05:28:59;;;;;;;8.18;2.42;;;;;;;;;;5014203;28;20390;-61
2023/04/11 05:31:25;;;;;;;7.43;1.73;;;;;;;;;;5014219;28;20486;-60
2023/04/11 05:33:51;;;;;;;6.22;2.25;;;;;;;;;;5013643;28;20026;-60
2023/04/11 05:36:17;;;;;;;5.35;1.77;;;;;;;;;;5013704;28;20574;-60
2023/04/11 05:38:44;;;;;;;7.13;1.70;;;;;;;;;;5013494;28;20100;-60
2023/04/11 05:41:11;;;;;;;9.23;2.20;;;;;;;;;;5013810;28;20390;-60
2023/04/11 05:43:37;;;;;;;9.00;1.95;;;;;;;;;;5013335;28;20451;-60
2023/04/11 05:46:03;;;;;;;6.15;1.67;;;;;;;;;;5013702;28;20030;-60
2023/04/11 05:48:29;;;;;;;8.52;2.33;;;;;;;;;;5013716;28;20093;-60
2023/04/11 05:50:56;;;;;;;5.95;1.98;;;;;;;;;;5011837;28;20589;-60
2023/04/11 05:53:22;;;;;;;6.68;1.67;;;;;;;;;;5016013;28;20098;-60
2023/04/11 05:55:48;;;;;;;7.85;2.38;;;;;;;;;;5012578;28;20108;-60
2023/04/11 05:58:14;;;;;;;9.30;2.30;;;;;;;;;;5003502;28;20022;-60
2023/04/11 06:00:40;;;;;;;9.40;2.00;;;;;;;;;;5003287;28;20046;-60
2023/04/11 06:03:09;;;;;;;9.98;2.10;;;;;;;;;;5009618;28;20033;-60
2023/04/11 06:05:35;;;;;;;6.43;2.15;;;;;;;;;;5015624;28;20036;-60
2023/04/11 06:08:02;;;;;;;6.65;2.30;;;;;;;;;;5012067;28;20109;-60
2023/04/11 06:10:29;;;;;;;8.15;2.20;;;;;;;;;;5013191;28;20029;-60
2023/04/11 06:12:55;;;;;;;7.93;1.95;;;;;;;;;;5013126;28;20548;-60
2023/04/11 06:15:21;;;;;;;7.50;2.20;;;;;;;;;;5012612;28;20030;-61
2023/04/11 06:17:47;;;;;;;13.73;2.30;;;;;;;;;;5012560;28;20030;-61
2023/04/11 06:20:13;;;;;;;6.95;2.25;;;;;;;;;;5012667;28;20116;-60
2023/04/11 06:22:39;;;;;;;8.18;3.03;;;;;;;;;;5012279;28;20022;-60
2023/04/11 06:25:06;;;;;;;11.50;2.13;;;;;;;;;;5011212;28;20034;-60
2023/04/11 06:27:32;;;;;;;7.82;2.05;;;;;;;;;;5007178;28;20022;-60
2023/04/11 06:29:58;;;;;;;8.13;1.90;;;;;;;;;;4993639;28;20401;-60
2023/04/11 06:32:24;;;;;;;10.30;2.30;;;;;;;;;;5012652;28;20027;-60
2023/04/11 06:34:50;;;;;;;9.88;2.55;;;;;;;;;;5024442;28;20091;-60
2023/04/11 06:37:16;;;;;;;7.75;2.15;;;;;;;;;;5029990;28;20021;-60
2023/04/11 06:39:43;;;;;;;12.23;2.88;;;;;;;;;;5011919;28;20038;-60
2023/04/11 06:42:09;;;;;;;6.95;1.98;;;;;;;;;;5012192;28;20486;-60
2023/04/11 06:44:35;;;;;;;9.15;2.45;;;;;;;;;;5011769;28;20030;-61
2023/04/11 06:47:01;;;;;;;7.90;2.47;;;;;;;;;;5011582;28;20393;-61
2023/04/11 06:49:27;;;;;;;5.68;1.80;;;;;;;;;;5017394;28;20307;-61
2023/04/11 06:51:54;;;;;;;7.15;2.67;;;;;;;;;;5020221;28;20148;-60
2023/04/11 06:54:20;;;;;;;7.28;2.20;;;;;;;;;;5016610;28;20033;-61
2023/04/11 06:56:46;;;;;;;5.97;2.60;;;;;;;;;;5020992;28;20104;-61
2023/04/11 06:59:13;;;;;;;7.47;2.35;;;;;;;;;;5019401;28;20124;-60
2023/04/11 07:01:39;;;;;;;7.20;2.10;;;;;;;;;;5019337;28;20512;-60
2023/04/11 07:04:06;;;;;;;7.38;2.22;;;;;;;;;;5019501;28;20049;-60
2023/04/11 07:06:34;;;;;;;9.57;2.10;;;;;;;;;;5015433;28;20037;-60
2023/04/11 07:09:00;;;;;;;6.55;1.83;;;;;;;;;;5012150;28;20030;-60
2023/04/11 07:11:27;;;;;;;5.60;1.90;;;;;;;;;;5011403;28;20041;-60
2023/04/11 07:13:54;;;;;;;7.55;2.22;;;;;;;;;;5012509;28;20079;-60
2023/04/11 07:16:20;;;;;;;10.93;1.92;;;;;;;;;;5019618;28;20041;-60
2023/04/11 07:18:47;;;;;;;7.18;2.08;;;;;;;;;;5020046;28;20492;-60
2023/04/11 07:21:13;;;;;;;9.77;2.22;;;;;;;;;;5027198;28;20042;-60
2023/04/11 07:23:40;;;;;;;8.35;2.20;;;;;;;;;;5019416;28;20022;-60
2023/04/11 07:26:09;;;;;;;11.77;2.70;;;;;;;;;;5019658;28;20100;-60
2023/04/11 07:28:36;;;;;;;8.63;2.53;;;;;;;;;;5020775;28;20029;-60
2023/04/11 07:31:02;;;;;;;10.25;2.30;;;;;;;;;;5020100;28;20030;-60
2023/04/11 07:33:29;;;;;;;8.18;1.95;;;;;;;;;;5019085;28;20022;-60
2023/04/11 07:35:55;;;;;;;8.35;2.20;;;;;;;;;;5018598;28;20088;-60
2023/04/11 07:38:30;;;;;;;9.13;2.17;;;;;;;;;;5020013;28;20014;-61
2023/04/11 07:40:56;;;;;;;10.07;2.50;;;;;;;;;;5013626;28;20033;-60
2023/04/11 07:43:23;;;;;;;7.75;2.30;;;;;;;;;;4997731;28;20040;-60
2023/04/11 07:45:49;;;;;;;12.05;2.22;;;;;;;;;;5015487;28;20036;-61
2023/04/11 07:48:15;;;;;;;9.45;2.67;;;;;;;;;;5011522;28;20024;-60
2023/04/11 07:50:41;;;;;;;8.88;1.98;;;;;;;;;;5010578;28;20486;-60
2023/04/11 07:53:09;;;;;;;7.90;2.20;;;;;;;;;;5011221;28;20037;-59
2023/04/11 07:55:35;;;;;;;7.50;1.95;;;;;;;;;;5011355;28;20036;-60
2023/04/11 07:58:01;;;;;;;8.20;1.90;;;;;;;;;;4993516;28;20124;-60
2023/04/11 08:00:29;;;;;;;9.60;2.20;;;;;;;;;;5011540;28;20550;-59
2023/04/11 08:02:57;;;;;;;7.13;1.65;;;;;;;;;;5010809;28;20033;-59
2023/04/11 08:05:23;;;;;;;8.95;2.67;;;;;;;;;;5010966;28;20120;-60
2023/04/11 08:07:49;;;;;;;6.28;2.30;;;;;;;;;;5011268;28;20041;-61
2023/04/11 08:10:15;;;;;;;7.47;2.00;;;;;;;;;;5015167;28;20030;-60
2023/04/11 08:12:41;;;;;;;7.03;2.17;;;;;;;;;;5011160;28;20063;-60
2023/04/11 08:15:07;;;;;;;13.98;2.97;;;;;;;;;;5015222;28;20036;-60
2023/04/11 08:17:37;;;;;;;11.82;2.80;;;;;;;;;;5015003;28;20033;-60
2023/04/11 08:20:04;;;;;;;8.13;2.35;;;;;;;;;;5014608;28;20038;-60
2023/04/11 08:22:33;;;;;;;7.20;2.15;;;;;;;;;;5015251;28;20165;-60
2023/04/11 08:24:59;;;;;;;7.00;1.75;;;;;;;;;;5015617;28;20073;-60
2023/04/11 08:27:25;;;;;;;8.77;1.98;;;;;;;;;;5015168;28;20119;-60
2023/04/11 08:29:51;;;;;;;9.52;2.10;;;;;;;;;;5014902;28;20107;-60
2023/04/11 08:32:17;;;;;;;7.03;2.67;;;;;;;;;;5015057;28;20463;-60
2023/04/11 08:34:42;;;;;;;10.50;1.98;;;;;;;;;;5014791;28;20057;-59
2023/04/11 08:37:09;;;;;;;20.40;2.67;;;;;;;;;;5013569;28;20457;-59
2023/04/11 08:39:35;;;;;;;8.43;2.13;;;;;;;;;;5013448;28;20034;-59
2023/04/11 08:42:01;;;;;;;7.45;1.90;;;;;;;;;;5014018;28;20112;-61
2023/04/11 08:44:27;;;;;;;6.28;2.63;;;;;;;;;;5013708;28;20478;-61
2023/04/11 08:46:53;;;;;;;7.07;2.10;;;;;;;;;;5013477;28;20061;-61
2023/04/11 08:49:19;;;;;;;8.63;2.10;;;;;;;;;;5013788;28;20050;-61
2023/04/11 08:51:45;;;;;;;8.32;2.20;;;;;;;;;;5012947;28;20034;-61
2023/04/11 08:54:11;;;;;;;9.25;2.30;;;;;;;;;;5014649;28;20022;-61
2023/04/11 08:56:40;;;;;;;10.32;2.47;;;;;;;;;;5014340;28;20379;-61
2023/04/11 08:59:06;;;;;;;6.55;1.88;;;;;;;;;;5014462;28;20022;-61
2023/04/11 09:01:32;;;;;;;8.77;2.05;;;;;;;;;;5014793;28;20080;-58
2023/04/11 09:04:04;;;;;;;6.63;1.85;;;;;;;;;;5014997;28;20382;-61
2023/04/11 09:06:31;;;;;;;9.20;2.00;;;;;;;;;;5014605;28;20552;-62
2023/04/11 09:09:04;;;;;;;6.65;1.83;;;;;;;;;;5014731;28;20030;-61
2023/04/11 09:11:30;;;;;;;9.98;1.88;;;;;;;;;;5014543;28;20121;-61
2023/04/11 09:14:08;;;;;;;7.20;1.85;;;;;;;;;;5014151;28;20101;-61
2023/04/11 09:16:35;;;;;;;6.28;1.83;;;;;;;;;;5014208;28;20030;-61
2023/04/11 09:19:01;;;;;;;7.32;2.03;;;;;;;;;;5014572;28;20041;-61
2023/04/11 09:21:28;;;;;;;10.48;2.05;;;;;;;;;;5014204;28;20026;-61
2023/04/11 09:23:54;;;;;;;10.13;2.38;;;;;;;;;;5013484;28;20037;-61
2023/04/11 09:26:27;;;;;;;7.22;2.20;;;;;;;;;;5014088;28;20030;-61
2023/04/11 09:28:53;;;;;;;6.65;1.88;;;;;;;;;;5013841;28;20033;-61
2023/04/11 09:31:38;;;;;;;8.30;2.10;;;;;;;;;;5014121;28;20029;-61
2023/04/11 09:34:05;;;;;;;6.45;1.70;;;;;;;;;;5013923;28;20026;-61
2023/04/11 09:36:31;;;;;;;6.10;2.08;;;;;;;;;;5014123;28;20037;-61
2023/04/11 09:38:58;;;;;;;6.95;1.55;;;;;;;;;;5014236;28;20030;-61
2023/04/11 09:41:37;;;;;;;8.38;2.00;;;;;;;;;;5013912;28;20034;-61
2023/04/11 09:44:04;;;;;;;9.23;2.03;;;;;;;;;;5013903;28;20057;-62
2023/04/11 09:46:30;;;;;;;3.22;1.27;;;;;;;;;;5014059;28;20108;-61
2023/04/11 09:48:56;;;;;;;7.03;1.92;;;;;;;;;;5013292;28;20030;-61
2023/04/11 09:51:22;;;;;;;9.23;1.80;;;;;;;;;;5013489;28;20536;-61
2023/04/11 09:53:48;;;;;;;4.93;1.55;;;;;;;;;;5013469;28;20029;-61
2023/04/11 09:56:14;;;;;;;7.15;1.85;;;;;;;;;;5013581;28;20466;-61
2023/04/11 09:58:40;;;;;;;4.63;1.45;;;;;;;;;;5013221;28;20037;-61
2023/04/11 10:01:08;;;;;;;4.82;1.10;;;;;;;;;;5013393;28;20474;-61
2023/04/11 10:03:35;;;;;;;6.28;1.80;;;;;;;;;;5013198;28;20049;-61
2023/04/11 10:06:07;;;;;;;5.95;1.92;;;;;;;;;;5013644;28;20389;-61
2023/04/11 10:08:34;;;;;;;6.35;1.38;;;;;;;;;;5012981;28;20482;-61
2023/04/11 10:11:01;;;;;;;5.80;1.63;;;;;;;;;;5013621;28;20030;-61
2023/04/11 10:13:36;;;;;;;8.13;1.90;;;;;;;;;;5013651;28;20397;-61
2023/04/11 10:16:07;;;;;;;6.37;2.03;;;;;;;;;;5013237;28;20132;-61
2023/04/11 10:18:33;;;;;;;6.07;1.42;;;;;;;;;;5012756;28;20109;-61
2023/04/11 10:21:00;;;;;;;6.88;1.83;;;;;;;;;;5013512;28;20087;-61
2023/04/11 10:23:26;;;;;;;6.82;1.67;;;;;;;;;;5013018;28;20466;-61
2023/04/11 10:25:57;;;;;;;7.00;1.77;;;;;;;;;;5012848;28;20030;-61
2023/04/11 10:28:49;;;;;;;5.85;1.88;;;;;;;;;;5012940;28;20038;-62
2023/04/11 10:31:16;;;;;;;6.78;1.52;;;;;;;;;;5010304;28;20045;-61
2023/04/11 10:34:02;;;;;;;7.45;2.03;;;;;;;;;;5012727;28;20062;-61
2023/04/11 10:36:48;;;;;;;6.50;1.70;;;;;;;;;;5012418;28;20061;-62
2023/04/11 10:39:14;;;;;;;6.32;1.55;;;;;;;;;;5012765;28;20490;-61
2023/04/11 10:41:40;;;;;;;7.68;1.58;;;;;;;;;;4994943;28;20041;-61
2023/04/11 10:44:19;;;;;;;9.45;2.15;;;;;;;;;;5012737;28;20025;-61
2023/04/11 10:46:46;;;;;;;7.30;2.22;;;;;;;;;;5012338;28;20037;-61
2023/04/11 10:49:12;;;;;;;5.80;1.50;;;;;;;;;;5012445;28;20022;-62
2023/04/11 10:51:38;;;;;;;5.60;1.58;;;;;;;;;;5012319;28;20033;-62
2023/04/11 10:54:04;;;;;;;8.90;1.88;;;;;;;;;;5012511;28;20105;-61
2023/04/11 10:56:39;;;;;;;7.85;1.70;;;;;;;;;;5012605;28;20552;-58
2023/04/11 10:59:05;;;;;;;4.30;1.40;;;;;;;;;;5012392;28;20042;-61
2023/04/11 11:01:32;;;;;;;4.65;1.50;;;;;;;;;;5012754;28;20028;-60
2023/04/11 11:03:58;;;;;;;4.28;1.40;;;;;;;;;;5012566;28;20033;-60
2023/04/11 11:06:25;;;;;;;9.40;2.00;;;;;;;;;;5012397;28;20022;-60
2023/04/11 11:08:51;;;;;;;5.50;1.50;;;;;;;;;;5012090;28;20033;-61
2023/04/11 11:11:18;;;;;;;8.65;1.60;;;;;;;;;;5012246;28;20022;-60
2023/04/11 11:13:46;;;;;;;5.40;1.60;;;;;;;;;;5011870;28;20038;-60
2023/04/11 11:16:15;;;;;;;3.40;1.17;;;;;;;;;;5012089;28;20030;-60
2023/04/11 11:18:44;;;;;;;6.18;1.63;;;;;;;;;;5011667;28;20025;-60
2023/04/11 11:21:11;;;;;;;6.72;1.70;;;;;;;;;;5012106;28;20030;-60
2023/04/11 11:23:37;;;;;;;5.45;1.83;;;;;;;;;;5011715;28;20398;-60
2023/04/11 11:26:03;;;;;;;5.30;1.25;;;;;;;;;;5011958;28;20033;-60
2023/04/11 11:28:29;;;;;;;6.82;1.85;;;;;;;;;;5012026;28;20037;-60
2023/04/11 11:30:56;;;;;;;4.95;1.27;;;;;;;;;;5011461;28;20026;-60
2023/04/11 11:33:23;;;;;;;7.95;2.13;;;;;;;;;;5011705;28;20424;-60
2023/04/11 11:35:51;;;;;;;6.18;1.67;;;;;;;;;;5011596;28;20021;-60
2023/04/11 11:38:18;;;;;;;4.80;1.65;;;;;;;;;;5011700;28;20501;-60
2023/04/11 11:40:45;;;;;;;5.63;1.55;;;;;;;;;;5011349;28;20058;-60
2023/04/11 11:43:11;;;;;;;5.82;1.50;;;;;;;;;;5011598;28;20037;-60
2023/04/11 11:45:37;;;;;;;4.10;1.30;;;;;;;;;;5011110;28;20029;-59
2023/04/11 11:48:04;;;;;;;4.72;1.27;;;;;;;;;;5011675;28;20516;-59
2023/04/11 11:50:31;;;;;;;6.35;1.15;;;;;;;;;;5011955;28;20109;-60
2023/04/11 11:53:13;;;;;;;3.92;1.67;;;;;;;;;;5011441;28;20030;-59
2023/04/11 11:55:40;;;;;;;4.22;1.52;;;;;;;;;;5011168;28;20026;-60
2023/04/11 11:58:06;;;;;;;5.60;1.40;;;;;;;;;;5011478;28;20049;-60
2023/04/11 12:00:39;;;;;;;6.30;1.90;;;;;;;;;;5011461;28;20498;-60
2023/04/11 12:03:06;;;;;;;4.47;1.70;;;;;;;;;;5011448;28;20018;-59
2023/04/11 12:05:32;;;;;;;7.13;1.48;;;;;;;;;;5011551;28;20025;-60
2023/04/11 12:07:59;;;;;;;5.32;1.50;;;;;;;;;;5012127;28;20418;-60
2023/04/11 12:10:27;;;;;;;6.47;1.67;;;;;;;;;;5011327;28;20375;-60
2023/04/11 12:12:53;;;;;;;4.22;1.40;;;;;;;;;;5011114;28;20477;-60
2023/04/11 12:15:20;;;;;;;5.18;1.20;;;;;;;;;;5011362;28;20038;-60
2023/04/11 12:17:48;;;;;;;4.32;1.20;;;;;;;;;;5011210;28;20512;-60
2023/04/11 12:20:14;;;;;;;5.65;1.40;;;;;;;;;;5011304;28;20108;-60
2023/04/11 12:22:40;;;;;;;4.93;1.50;;;;;;;;;;5011072;28;20026;-60
2023/04/11 12:25:10;;;;;;;7.03;1.33;;;;;;;;;;5011261;28;20433;-60
2023/04/11 12:27:37;;;;;;;6.30;1.27;;;;;;;;;;5011184;28;20109;-60
2023/04/11 12:30:03;;;;;;;3.08;1.00;;;;;;;;;;5011060;28;20478;-59
2023/04/11 12:32:31;;;;;;;4.65;1.33;;;;;;;;;;5011522;28;20022;-60
2023/04/11 12:34:57;;;;;;;4.75;1.27;;;;;;;;;;5011415;28;20050;-59
2023/04/11 12:37:23;;;;;;;4.60;1.05;;;;;;;;;;5011132;28;20470;-60
2023/04/11 12:39:50;;;;;;;4.65;1.23;;;;;;;;;;5010551;28;20044;-60
2023/04/11 12:42:16;;;;;;;5.30;1.38;;;;;;;;;;5010777;28;20042;-60
2023/04/11 12:44:43;;;;;;;7.88;1.80;;;;;;;;;;5010899;28;20414;-59
2023/04/11 12:47:09;;;;;;;4.78;1.40;;;;;;;;;;5011056;28;20033;-60
2023/04/11 12:49:35;;;;;;;5.38;1.27;;;;;;;;;;5010630;28;20060;-60
2023/04/11 12:52:00;;;;;;;4.50;1.20;;;;;;;;;;5011344;28;20097;-60
2023/04/11 12:54:27;;;;;;;4.82;1.48;;;;;;;;;;5010979;28;20033;-59
2023/04/11 12:56:53;;;;;;;4.38;1.23;;;;;;;;;;5010660;28;20029;-60
2023/04/11 12:59:20;;;;;;;5.22;1.38;;;;;;;;;;5011823;28;20026;-60
2023/04/11 13:01:46;;;;;;;5.18;1.63;;;;;;;;;;5014289;28;20040;-60
2023/04/11 13:04:12;;;;;;;4.43;1.30;;;;;;;;;;5014512;28;20026;-59
2023/04/11 13:06:38;;;;;;;5.50;1.20;;;;;;;;;;5014261;28;20425;-60
2023/04/11 13:09:05;;;;;;;5.60;1.17;;;;;;;;;;5014480;28;20088;-60
2023/04/11 13:11:31;;;;;;;4.63;1.27;;;;;;;;;;5014667;28;20032;-60
2023/04/11 13:13:57;;;;;;;3.35;0.93;;;;;;;;;;5014444;28;20109;-60
2023/04/11 13:16:23;;;;;;;2.00;0.73;;;;;;;;;;5014384;28;20108;-59
2023/04/11 13:18:49;;;;;;;4.00;1.02;;;;;;;;;;5014042;28;20030;-59
2023/04/11 13:21:15;;;;;;;4.78;1.33;;;;;;;;;;5014274;28;20033;-60
2023/04/11 13:23:41;;;;;;;6.20;1.38;;;;;;;;;;5013882;28;20104;-60
2023/04/11 13:26:07;;;;;;;4.32;1.20;;;;;;;;;;5014040;28;20088;-60
2023/04/11 13:28:33;;;;;;;2.78;1.20;;;;;;;;;;5013970;28;20022;-60
2023/04/11 13:31:00;;;;;;;3.75;1.10;;;;;;;;;;5014265;28;20069;-60
2023/04/11 13:33:26;;;;;;;3.42;0.90;;;;;;;;;;5014061;28;20541;-60
2023/04/11 13:35:52;;;;;;;5.60;1.38;;;;;;;;;;5013686;28;20691;-60
2023/04/11 13:38:18;;;;;;;3.17;0.82;;;;;;;;;;5013923;28;20041;-59
2023/04/11 13:40:44;;;;;;;3.17;0.90;;;;;;;;;;5013582;28;20087;-59
2023/04/11 13:43:10;;;;;;;4.10;0.82;;;;;;;;;;5013798;28;20469;-60
2023/04/11 13:45:36;;;;;;;3.40;0.90;;;;;;;;;;5013576;28;20026;-60
2023/04/11 13:48:02;;;;;;;6.43;1.02;;;;;;;;;;5013916;28;20030;-60
2023/04/11 13:50:28;;;;;;;3.83;1.10;;;;;;;;;;5013993;28;20509;-60
2023/04/11 13:52:55;;;;;;;4.03;1.10;;;;;;;;;;5013397;28;20479;-60
2023/04/11 13:55:22;;;;;;;4.55;1.13;;;;;;;;;;5013741;28;20033;-60
2023/04/11 13:57:48;;;;;;;4.47;1.23;;;;;;;;;;5013461;28;20447;-60
2023/04/11 14:00:14;;;;;;;3.28;0.75;;;;;;;;;;5013524;28;20529;-60
2023/04/11 14:02:40;;;;;;;2.60;0.80;;;;;;;;;;5013268;28;20034;-60
2023/04/11 14:05:07;;;;;;;3.30;1.00;;;;;;;;;;5013456;28;20029;-60
2023/04/11 14:07:33;;;;;;;3.28;1.10;;;;;;;;;;5013212;28;20033;-59
2023/04/11 14:09:59;;;;;;;4.40;0.90;;;;;;;;;;5013256;28;20052;-60
2023/04/11 14:12:26;;;;;;;5.13;1.30;;;;;;;;;;5012525;28;20022;-60
2023/04/11 14:14:52;;;;;;;3.55;1.00;;;;;;;;;;5013093;28;20501;-60
2023/04/11 14:17:18;;;;;;;3.63;1.05;;;;;;;;;;5013308;28;20082;-60
2023/04/11 14:19:44;;;;;;;3.35;1.10;;;;;;;;;;5012833;28;20080;-59
2023/04/11 14:22:10;;;;;;;4.15;1.15;;;;;;;;;;5013118;28;20025;-60
2023/04/11 14:24:36;;;;;;;3.55;1.02;;;;;;;;;;5012822;28;20512;-60
2023/04/11 14:27:03;;;;;;;4.25;1.23;;;;;;;;;;5013077;28;20037;-60
2023/04/11 14:29:29;;;;;;;4.47;1.10;;;;;;;;;;5013242;28;20037;-60
2023/04/11 14:31:56;;;;;;;3.72;0.90;;;;;;;;;;5012775;28;20048;-60
2023/04/11 14:34:22;;;;;;;4.18;1.00;;;;;;;;;;5012752;28;20041;-60
2023/04/11 14:36:48;;;;;;;3.03;0.85;;;;;;;;;;5012567;28;20029;-60
2023/04/11 14:39:14;;;;;;;4.40;1.20;;;;;;;;;;5012651;28;20386;-60